createdAt,value
2018-08-31T00:00:21.326Z,1007.91
2018-08-31T00:01:02.180Z,1007.96
2018-08-31T00:01:42.780Z,1007.89
2018-08-31T00:02:23.280Z,1007.95
2018-08-31T00:03:03.924Z,1007.95
2018-08-31T00:03:44.279Z,1007.95
2018-08-31T00:04:24.884Z,1007.91
2018-08-31T00:05:05.387Z,1007.89
2018-08-31T00:05:45.915Z,1007.93
2018-08-31T00:06:26.448Z,1007.87
2018-08-31T00:07:06.988Z,1007.9
2018-08-31T00:07:47.458Z,1007.88
2018-08-31T00:08:27.942Z,1007.86
2018-08-31T00:09:08.469Z,1007.85
2018-08-31T00:09:48.985Z,1007.85
2018-08-31T00:10:29.531Z,1007.86
2018-08-31T00:11:09.982Z,1007.81
2018-08-31T00:11:50.476Z,1007.84
2018-08-31T00:12:30.982Z,1007.82
2018-08-31T00:13:11.487Z,1007.87
2018-08-31T00:13:52.026Z,1007.83
2018-08-31T00:14:32.541Z,1007.89
2018-08-31T00:15:13.025Z,1007.88
2018-08-31T00:15:53.547Z,1007.91
2018-08-31T00:16:34.076Z,1007.95
2018-08-31T00:17:14.584Z,1007.94
2018-08-31T00:17:55.093Z,1007.93
2018-08-31T00:18:35.608Z,1007.95
2018-08-31T00:19:16.103Z,1007.94
2018-08-31T00:19:56.609Z,1007.96
2018-08-31T00:20:37.127Z,1007.95
2018-08-31T00:21:18.384Z,1008.01
2018-08-31T00:21:58.909Z,1007.97
2018-08-31T00:22:39.396Z,1008
2018-08-31T00:23:19.896Z,1007.95
2018-08-31T00:24:00.425Z,1007.99
2018-08-31T00:24:40.947Z,1007.96
2018-08-31T00:25:21.462Z,1007.99
2018-08-31T00:26:01.983Z,1007.96
2018-08-31T00:26:42.458Z,1007.94
2018-08-31T00:27:22.948Z,1008
2018-08-31T00:28:03.460Z,1008.01
2018-08-31T00:28:44.005Z,1007.98
2018-08-31T00:29:24.518Z,1007.98
2018-08-31T00:30:05.021Z,1007.99
2018-08-31T00:30:45.523Z,1008.01
2018-08-31T00:31:26.037Z,1007.99
2018-08-31T00:32:06.550Z,1007.98
2018-08-31T00:32:47.069Z,1007.95
2018-08-31T00:33:27.602Z,1007.95
2018-08-31T00:34:08.201Z,1007.98
2018-08-31T00:34:48.646Z,1007.99
2018-08-31T00:35:29.098Z,1007.98
2018-08-31T00:36:09.611Z,1007.95
2018-08-31T00:36:50.108Z,1007.97
2018-08-31T00:37:30.554Z,1007.93
2018-08-31T00:38:11.046Z,1007.94
2018-08-31T00:38:51.482Z,1007.93
2018-08-31T00:39:33.396Z,1007.94
2018-08-31T00:40:12.471Z,1007.94
2018-08-31T00:40:52.958Z,1007.97
2018-08-31T00:41:33.640Z,1007.92
2018-08-31T00:42:14.111Z,1007.91
2018-08-31T00:42:54.578Z,1007.89
2018-08-31T00:43:35.095Z,1007.9
2018-08-31T00:44:15.647Z,1007.88
2018-08-31T00:44:56.149Z,1007.88
2018-08-31T00:45:36.656Z,1007.84
2018-08-31T00:46:17.107Z,1007.85
2018-08-31T00:46:57.631Z,1007.82
2018-08-31T00:47:38.097Z,1007.82
2018-08-31T00:48:18.569Z,1007.76
2018-08-31T00:48:59.069Z,1007.81
2018-08-31T00:49:39.531Z,1007.78
2018-08-31T00:50:20.064Z,1007.74
2018-08-31T00:51:00.524Z,1007.69
2018-08-31T00:51:40.986Z,1007.61
2018-08-31T00:52:21.654Z,1007.67
2018-08-31T00:53:02.138Z,1007.62
2018-08-31T00:53:42.625Z,1007.59
2018-08-31T00:54:23.106Z,1007.58
2018-08-31T00:55:03.603Z,1007.54
2018-08-31T00:55:44.143Z,1007.48
2018-08-31T00:56:24.602Z,1007.49
2018-08-31T00:57:05.081Z,1007.47
2018-08-31T00:57:45.589Z,1007.44
2018-08-31T00:58:26.085Z,1007.43
2018-08-31T00:59:07.328Z,1007.41
2018-08-31T00:59:47.297Z,1007.49
2018-08-31T01:00:27.781Z,1007.44
2018-08-31T01:01:08.269Z,1007.39
2018-08-31T01:01:48.743Z,1007.42
2018-08-31T01:02:29.252Z,1007.39
2018-08-31T01:03:09.747Z,1007.47
2018-08-31T01:03:50.267Z,1007.46
2018-08-31T01:04:30.719Z,1007.5
2018-08-31T01:05:11.226Z,1007.5
2018-08-31T01:05:51.754Z,1007.49
2018-08-31T01:06:32.239Z,1007.52
2018-08-31T01:07:12.768Z,1007.53
2018-08-31T01:07:53.281Z,1007.56
2018-08-31T01:08:33.786Z,1007.62
2018-08-31T01:09:14.268Z,1007.6
2018-08-31T01:09:54.742Z,1007.63
2018-08-31T01:10:35.280Z,1007.63
2018-08-31T01:11:15.784Z,1007.67
2018-08-31T01:11:56.278Z,1007.66
2018-08-31T01:12:36.773Z,1007.68
2018-08-31T01:13:17.254Z,1007.67
2018-08-31T01:13:57.885Z,1007.67
2018-08-31T01:14:38.377Z,1007.67
2018-08-31T01:15:18.861Z,1007.7
2018-08-31T01:15:59.331Z,1007.71
2018-08-31T01:16:39.813Z,1007.67
2018-08-31T01:17:20.322Z,1007.68
2018-08-31T01:18:00.837Z,1007.67
2018-08-31T01:18:41.286Z,1007.67
2018-08-31T01:19:21.764Z,1007.75
2018-08-31T01:20:02.278Z,1007.68
2018-08-31T01:20:42.785Z,1007.69
2018-08-31T01:21:23.258Z,1007.67
2018-08-31T01:22:03.778Z,1007.66
2018-08-31T01:22:44.528Z,1007.7
2018-08-31T01:23:24.980Z,1007.69
2018-08-31T01:24:05.566Z,1007.65
2018-08-31T01:24:46.042Z,1007.67
2018-08-31T01:25:26.515Z,1007.68
2018-08-31T01:26:07.046Z,1007.69
2018-08-31T01:26:47.515Z,1007.73
2018-08-31T01:27:27.982Z,1007.76
2018-08-31T01:28:08.446Z,1007.76
2018-08-31T01:28:48.966Z,1007.76
2018-08-31T01:29:29.405Z,1007.71
2018-08-31T01:30:09.898Z,1007.69
2018-08-31T01:30:50.349Z,1007.72
2018-08-31T01:31:30.863Z,1007.7
2018-08-31T01:32:11.332Z,1007.71
2018-08-31T01:32:51.819Z,1007.73
2018-08-31T01:33:32.354Z,1007.69
2018-08-31T01:34:12.863Z,1007.69
2018-08-31T01:34:53.375Z,1007.68
2018-08-31T01:35:33.841Z,1007.72
2018-08-31T01:36:14.311Z,1007.73
2018-08-31T01:36:54.809Z,1007.7
2018-08-31T01:37:35.298Z,1007.72
2018-08-31T01:38:15.791Z,1007.72
2018-08-31T01:38:56.354Z,1007.73
2018-08-31T01:39:36.824Z,1007.72
2018-08-31T01:40:17.281Z,1007.65
2018-08-31T01:40:57.808Z,1007.71
2018-08-31T01:41:38.259Z,1007.63
2018-08-31T01:42:18.763Z,1007.62
2018-08-31T01:42:59.250Z,1007.61
2018-08-31T01:43:39.730Z,1007.65
2018-08-31T01:44:20.196Z,1007.6
2018-08-31T01:45:00.720Z,1007.57
2018-08-31T01:45:41.341Z,1007.54
2018-08-31T01:46:21.827Z,1007.52
2018-08-31T01:47:02.319Z,1007.47
2018-08-31T01:47:42.846Z,1007.49
2018-08-31T01:48:23.292Z,1007.46
2018-08-31T01:49:03.792Z,1007.46
2018-08-31T01:49:44.258Z,1007.44
2018-08-31T01:50:24.793Z,1007.42
2018-08-31T01:51:05.244Z,1007.4
2018-08-31T01:51:45.730Z,1007.44
2018-08-31T01:52:26.270Z,1007.36
2018-08-31T01:53:06.779Z,1007.41
2018-08-31T01:53:47.256Z,1007.39
2018-08-31T01:54:27.760Z,1007.39
2018-08-31T01:55:08.232Z,1007.39
2018-08-31T01:55:49.057Z,1007.35
2018-08-31T01:56:29.582Z,1007.38
2018-08-31T01:57:10.024Z,1007.34
2018-08-31T01:57:50.523Z,1007.32
2018-08-31T01:58:30.997Z,1007.33
2018-08-31T01:59:12.460Z,1007.37
2018-08-31T01:59:52.922Z,1007.31
2018-08-31T02:00:33.409Z,1007.3
2018-08-31T02:01:13.901Z,1007.29
2018-08-31T02:01:54.412Z,1007.29
2018-08-31T02:02:34.884Z,1007.28
2018-08-31T02:03:15.371Z,1007.32
2018-08-31T02:03:55.899Z,1007.31
2018-08-31T02:04:36.371Z,1007.26
2018-08-31T02:05:17.502Z,1007.28
2018-08-31T02:05:57.978Z,1007.25
2018-08-31T02:06:38.479Z,1007.28
2018-08-31T02:07:18.987Z,1007.3
2018-08-31T02:07:59.452Z,1007.25
2018-08-31T02:08:39.972Z,1007.25
2018-08-31T02:09:20.511Z,1007.21
2018-08-31T02:10:01.040Z,1007.23
2018-08-31T02:10:41.540Z,1007.25
2018-08-31T02:11:21.988Z,1007.22
2018-08-31T02:12:02.510Z,1007.22
2018-08-31T02:12:43.186Z,1007.22
2018-08-31T02:13:23.661Z,1007.18
2018-08-31T02:14:04.215Z,1007.26
2018-08-31T02:14:44.599Z,1007.2
2018-08-31T02:15:25.139Z,1007.18
2018-08-31T02:16:05.596Z,1007.17
2018-08-31T02:16:46.104Z,1007.22
2018-08-31T02:17:26.589Z,1007.17
2018-08-31T02:18:07.032Z,1007.18
2018-08-31T02:18:47.475Z,1007.16
2018-08-31T02:19:27.990Z,1007.14
2018-08-31T02:20:08.500Z,1007.17
2018-08-31T02:20:48.938Z,1007.13
2018-08-31T02:21:29.444Z,1007.17
2018-08-31T02:22:09.993Z,1007.17
2018-08-31T02:22:50.485Z,1007.12
2018-08-31T02:23:30.989Z,1007.16
2018-08-31T02:24:11.484Z,1007.13
2018-08-31T02:24:51.990Z,1007.14
2018-08-31T02:25:32.481Z,1007.15
2018-08-31T02:26:12.983Z,1007.12
2018-08-31T02:26:53.451Z,1007.16
2018-08-31T02:27:33.939Z,1007.15
2018-08-31T02:28:14.570Z,1007.12
2018-08-31T02:28:55.093Z,1007.06
2018-08-31T02:29:35.568Z,1007.09
2018-08-31T02:30:16.088Z,1007.03
2018-08-31T02:30:56.623Z,1007.06
2018-08-31T02:31:37.103Z,1007.03
2018-08-31T02:32:17.578Z,1007.04
2018-08-31T02:32:58.034Z,1006.99
2018-08-31T02:33:38.540Z,1007
2018-08-31T02:34:18.997Z,1006.98
2018-08-31T02:34:59.530Z,1006.96
2018-08-31T02:35:39.969Z,1006.98
2018-08-31T02:36:20.534Z,1006.94
2018-08-31T02:37:00.957Z,1006.92
2018-08-31T02:37:41.512Z,1006.92
2018-08-31T02:38:21.971Z,1006.92
2018-08-31T02:39:02.537Z,1006.91
2018-08-31T02:39:42.984Z,1006.86
2018-08-31T02:40:23.523Z,1006.83
2018-08-31T02:41:04.001Z,1006.82
2018-08-31T02:41:45.298Z,1006.83
2018-08-31T02:42:26.125Z,1006.85
2018-08-31T02:43:06.808Z,1006.82
2018-08-31T02:43:47.599Z,1006.77
2018-08-31T02:44:28.052Z,1006.79
2018-08-31T02:45:08.560Z,1006.74
2018-08-31T02:45:49.062Z,1006.77
2018-08-31T02:46:29.554Z,1006.78
2018-08-31T02:47:10.006Z,1006.69
2018-08-31T02:47:50.494Z,1006.74
2018-08-31T02:48:31.105Z,1006.68
2018-08-31T02:49:11.560Z,1006.66
2018-08-31T02:49:52.084Z,1006.65
2018-08-31T02:50:32.551Z,1006.66
2018-08-31T02:51:13.325Z,1006.66
2018-08-31T02:51:53.819Z,1006.66
2018-08-31T02:52:34.317Z,1006.63
2018-08-31T02:53:14.915Z,1006.66
2018-08-31T02:53:55.401Z,1006.67
2018-08-31T02:54:35.905Z,1006.61
2018-08-31T02:55:17.219Z,1006.66
2018-08-31T02:55:57.533Z,1006.64
2018-08-31T02:56:38.001Z,1006.66
2018-08-31T02:57:18.553Z,1006.67
2018-08-31T02:57:58.984Z,1006.62
2018-08-31T02:58:39.512Z,1006.72
2018-08-31T02:59:19.969Z,1006.64
2018-08-31T03:00:00.462Z,1006.64
2018-08-31T03:00:40.969Z,1006.62
2018-08-31T03:01:21.462Z,1006.61
2018-08-31T03:02:01.925Z,1006.64
2018-08-31T03:02:42.414Z,1006.65
2018-08-31T03:03:22.958Z,1006.64
2018-08-31T03:04:03.421Z,1006.64
2018-08-31T03:04:43.890Z,1006.6
2018-08-31T03:05:24.369Z,1006.64
2018-08-31T03:06:04.888Z,1006.63
2018-08-31T03:06:45.366Z,1006.61
2018-08-31T03:07:25.886Z,1006.6
2018-08-31T03:08:06.363Z,1006.64
2018-08-31T03:08:46.873Z,1006.62
2018-08-31T03:09:27.447Z,1006.61
2018-08-31T03:10:07.980Z,1006.62
2018-08-31T03:10:48.455Z,1006.66
2018-08-31T03:11:28.988Z,1006.68
2018-08-31T03:12:09.497Z,1006.7
2018-08-31T03:12:49.997Z,1006.71
2018-08-31T03:13:30.459Z,1006.74
2018-08-31T03:14:10.962Z,1006.73
2018-08-31T03:14:51.429Z,1006.76
2018-08-31T03:15:31.891Z,1006.68
2018-08-31T03:16:12.332Z,1006.76
2018-08-31T03:16:52.811Z,1006.73
2018-08-31T03:17:33.330Z,1006.73
2018-08-31T03:18:13.806Z,1006.75
2018-08-31T03:18:54.333Z,1006.78
2018-08-31T03:19:34.838Z,1006.74
2018-08-31T03:20:15.325Z,1006.77
2018-08-31T03:20:55.760Z,1006.75
2018-08-31T03:21:36.305Z,1006.76
2018-08-31T03:22:16.845Z,1006.77
2018-08-31T03:22:57.306Z,1006.82
2018-08-31T03:23:37.753Z,1006.79
2018-08-31T03:24:18.247Z,1006.83
2018-08-31T03:24:58.827Z,1006.84
2018-08-31T03:25:39.268Z,1006.83
2018-08-31T03:26:19.769Z,1006.85
2018-08-31T03:27:00.294Z,1006.88
2018-08-31T03:27:40.754Z,1006.83
2018-08-31T03:28:21.254Z,1006.89
2018-08-31T03:29:01.858Z,1006.87
2018-08-31T03:29:42.347Z,1006.85
2018-08-31T03:30:22.832Z,1006.85
2018-08-31T03:31:03.304Z,1006.78
2018-08-31T03:31:43.845Z,1006.81
2018-08-31T03:32:24.349Z,1006.8
2018-08-31T03:33:04.802Z,1006.76
2018-08-31T03:33:45.325Z,1006.79
2018-08-31T03:34:25.803Z,1006.7
2018-08-31T03:35:06.294Z,1006.73
2018-08-31T03:35:46.764Z,1006.76
2018-08-31T03:36:27.250Z,1006.76
2018-08-31T03:37:07.850Z,1006.8
2018-08-31T03:37:48.321Z,1006.78
2018-08-31T03:38:28.786Z,1006.83
2018-08-31T03:39:09.228Z,1006.84
2018-08-31T03:39:49.747Z,1006.82
2018-08-31T03:40:30.190Z,1006.81
2018-08-31T03:41:10.701Z,1006.88
2018-08-31T03:41:51.236Z,1006.85
2018-08-31T03:42:31.727Z,1006.85
2018-08-31T03:43:12.240Z,1006.86
2018-08-31T03:43:53.204Z,1006.88
2018-08-31T03:44:33.700Z,1006.92
2018-08-31T03:45:14.197Z,1006.85
2018-08-31T03:45:54.684Z,1006.87
2018-08-31T03:46:35.248Z,1006.87
2018-08-31T03:47:15.702Z,1006.83
2018-08-31T03:47:56.895Z,1006.85
2018-08-31T03:48:37.388Z,1006.88
2018-08-31T03:49:17.919Z,1006.86
2018-08-31T03:51:36.296Z,1006.85
2018-08-31T03:52:16.838Z,1006.89
2018-08-31T03:52:57.371Z,1006.91
2018-08-31T03:53:37.861Z,1006.9
2018-08-31T03:54:18.366Z,1006.91
2018-08-31T03:54:58.881Z,1006.8
2018-08-31T03:55:39.393Z,1006.84
2018-08-31T03:56:19.914Z,1006.87
2018-08-31T03:57:00.430Z,1006.84
2018-08-31T03:57:40.922Z,1006.85
2018-08-31T03:58:21.411Z,1006.85
2018-08-31T03:59:01.913Z,1006.78
2018-08-31T03:59:42.393Z,1006.81
2018-08-31T04:00:22.894Z,1006.8
2018-08-31T04:01:03.391Z,1006.82
2018-08-31T04:01:43.899Z,1006.83
2018-08-31T04:02:24.415Z,1006.87
2018-08-31T04:03:04.915Z,1006.89
2018-08-31T04:03:45.405Z,1006.87
2018-08-31T04:04:25.933Z,1006.87
2018-08-31T04:05:06.440Z,1006.86
2018-08-31T04:05:46.940Z,1006.87
2018-08-31T04:06:27.446Z,1006.84
2018-08-31T04:07:08.010Z,1006.83
2018-08-31T04:07:48.499Z,1006.87
2018-08-31T04:08:29.020Z,1006.86
2018-08-31T04:09:09.526Z,1006.88
2018-08-31T04:09:50.035Z,1006.9
2018-08-31T04:10:30.552Z,1006.92
2018-08-31T04:11:11.084Z,1006.91
2018-08-31T04:11:51.606Z,1006.92
2018-08-31T04:12:32.136Z,1006.96
2018-08-31T04:13:12.687Z,1007
2018-08-31T04:13:53.214Z,1006.98
2018-08-31T04:14:33.753Z,1006.99
2018-08-31T04:15:14.287Z,1007
2018-08-31T04:15:54.794Z,1007.02
2018-08-31T04:16:35.306Z,1007.01
2018-08-31T04:18:33.469Z,1007.02
2018-08-31T04:19:14.021Z,1006.99
2018-08-31T04:19:54.506Z,1007.06
2018-08-31T04:20:35.012Z,1007.01
2018-08-31T04:21:15.552Z,1007
2018-08-31T04:21:56.058Z,1007.04
2018-08-31T04:22:36.582Z,1007.01
2018-08-31T04:23:17.111Z,1006.97
2018-08-31T04:23:57.610Z,1006.97
2018-08-31T04:24:38.134Z,1006.93
2018-08-31T04:25:18.761Z,1006.94
2018-08-31T04:25:59.274Z,1006.92
2018-08-31T04:26:39.791Z,1006.94
2018-08-31T04:27:20.312Z,1006.91
2018-08-31T04:28:00.825Z,1006.96
2018-08-31T04:28:41.373Z,1007.03
2018-08-31T04:29:21.885Z,1006.95
2018-08-31T04:30:02.417Z,1006.99
2018-08-31T04:30:42.931Z,1007.01
2018-08-31T04:31:23.441Z,1006.97
2018-08-31T04:32:03.969Z,1007.01
2018-08-31T04:32:44.473Z,1006.98
2018-08-31T04:33:25.190Z,1007.02
2018-08-31T04:34:05.819Z,1006.99
2018-08-31T04:34:46.242Z,1007.02
2018-08-31T04:35:26.738Z,1006.98
2018-08-31T04:36:07.233Z,1006.98
2018-08-31T04:36:47.745Z,1006.95
2018-08-31T04:37:28.255Z,1006.99
2018-08-31T04:38:08.760Z,1006.99
2018-08-31T04:38:49.236Z,1006.97
2018-08-31T04:41:02.505Z,1006.98
2018-08-31T04:41:43.008Z,1006.95
2018-08-31T04:42:23.513Z,1006.89
2018-08-31T04:43:04.049Z,1006.92
2018-08-31T04:43:44.536Z,1006.93
2018-08-31T04:44:25.085Z,1006.92
2018-08-31T04:45:05.606Z,1006.9
2018-08-31T04:45:46.110Z,1006.96
2018-08-31T04:46:26.605Z,1006.95
2018-08-31T04:47:07.116Z,1006.96
2018-08-31T04:47:48.368Z,1006.95
2018-08-31T04:48:28.881Z,1006.96
2018-08-31T04:49:09.423Z,1006.93
2018-08-31T04:49:49.902Z,1006.93
2018-08-31T04:50:30.505Z,1006.92
2018-08-31T04:51:10.904Z,1006.92
2018-08-31T04:51:51.408Z,1006.86
2018-08-31T04:52:31.994Z,1006.9
2018-08-31T04:53:12.537Z,1006.89
2018-08-31T04:53:53.130Z,1006.88
2018-08-31T04:54:33.624Z,1006.88
2018-08-31T04:55:14.120Z,1006.91
2018-08-31T04:55:54.572Z,1006.89
2018-08-31T04:56:35.052Z,1006.89
2018-08-31T04:57:15.540Z,1006.92
2018-08-31T04:57:56.581Z,1006.92
2018-08-31T04:58:37.177Z,1006.98
2018-08-31T04:59:18.188Z,1006.93
2018-08-31T04:59:58.177Z,1006.93
2018-08-31T05:00:38.639Z,1007
2018-08-31T05:01:19.128Z,1006.92
2018-08-31T05:01:59.636Z,1006.93
2018-08-31T05:02:40.186Z,1006.95
2018-08-31T05:03:20.720Z,1006.95
2018-08-31T05:04:01.241Z,1006.91
2018-08-31T05:04:41.777Z,1006.92
2018-08-31T05:05:22.672Z,1006.91
2018-08-31T05:06:03.360Z,1006.93
2018-08-31T05:06:43.854Z,1006.92
2018-08-31T05:07:24.368Z,1006.92
2018-08-31T05:08:04.897Z,1006.89
2018-08-31T05:08:45.395Z,1006.89
2018-08-31T05:09:25.947Z,1006.91
2018-08-31T05:10:06.445Z,1006.9
2018-08-31T05:10:46.896Z,1006.88
2018-08-31T05:11:27.381Z,1006.88
2018-08-31T05:12:07.950Z,1006.92
2018-08-31T05:12:48.472Z,1006.88
2018-08-31T05:13:28.995Z,1006.85
2018-08-31T05:14:09.531Z,1006.88
2018-08-31T05:14:50.048Z,1006.88
2018-08-31T05:15:30.573Z,1006.88
2018-08-31T05:16:11.243Z,1006.83
2018-08-31T05:16:51.603Z,1006.79
2018-08-31T05:17:32.128Z,1006.81
2018-08-31T05:18:12.674Z,1006.84
2018-08-31T05:18:53.155Z,1006.79
2018-08-31T05:19:33.676Z,1006.81
2018-08-31T05:20:14.179Z,1006.81
2018-08-31T05:20:54.698Z,1006.79
2018-08-31T05:21:35.214Z,1006.82
2018-08-31T05:22:15.794Z,1006.83
2018-08-31T05:22:56.302Z,1006.81
2018-08-31T05:23:36.806Z,1006.88
2018-08-31T05:24:17.329Z,1006.83
2018-08-31T05:24:57.857Z,1006.85
2018-08-31T05:25:38.410Z,1006.85
2018-08-31T05:26:18.905Z,1006.86
2018-08-31T05:28:32.484Z,1006.88
2018-08-31T05:29:12.880Z,1006.87
2018-08-31T05:29:53.770Z,1006.84
2018-08-31T05:30:34.293Z,1006.87
2018-08-31T05:31:14.813Z,1006.89
2018-08-31T05:31:55.460Z,1006.9
2018-08-31T05:32:35.948Z,1006.9
2018-08-31T05:33:16.468Z,1006.87
2018-08-31T05:33:57.036Z,1006.91
2018-08-31T05:34:37.483Z,1006.88
2018-08-31T05:35:18.230Z,1006.86
2018-08-31T05:35:58.633Z,1006.88
2018-08-31T05:36:39.167Z,1006.9
2018-08-31T05:37:19.786Z,1006.89
2018-08-31T05:38:00.446Z,1006.88
2018-08-31T05:38:41.087Z,1006.93
2018-08-31T05:39:21.583Z,1006.88
2018-08-31T05:40:02.088Z,1006.91
2018-08-31T05:40:42.739Z,1006.92
2018-08-31T05:41:23.230Z,1006.99
2018-08-31T05:42:03.789Z,1006.96
2018-08-31T05:42:44.311Z,1006.96
2018-08-31T05:43:24.830Z,1006.98
2018-08-31T05:44:05.367Z,1006.95
2018-08-31T05:44:46.179Z,1006.99
2018-08-31T05:45:26.764Z,1007.03
2018-08-31T05:46:07.286Z,1006.96
2018-08-31T05:46:47.763Z,1007
2018-08-31T05:47:29.061Z,1007
2018-08-31T05:48:09.666Z,1007.01
2018-08-31T05:48:50.182Z,1006.97
2018-08-31T05:49:30.606Z,1007.03
2018-08-31T05:50:11.117Z,1007
2018-08-31T05:50:51.632Z,1006.97
2018-08-31T05:51:32.138Z,1006.99
2018-08-31T05:52:12.605Z,1007.03
2018-08-31T05:52:53.080Z,1006.97
2018-08-31T05:53:34.393Z,1006.96
2018-08-31T05:54:14.832Z,1007
2018-08-31T05:54:55.282Z,1006.99
2018-08-31T05:55:35.779Z,1006.98
2018-08-31T05:56:16.288Z,1006.99
2018-08-31T05:56:56.795Z,1007.03
2018-08-31T05:57:37.483Z,1007.06
2018-08-31T05:58:18.043Z,1007.06
2018-08-31T05:58:58.598Z,1007.06
2018-08-31T05:59:39.099Z,1007.08
2018-08-31T06:00:19.874Z,1007.12
2018-08-31T06:01:00.310Z,1007.08
2018-08-31T06:01:40.805Z,1007.09
2018-08-31T06:02:21.274Z,1007.17
2018-08-31T06:03:01.754Z,1007.14
2018-08-31T06:03:42.563Z,1007.17
2018-08-31T06:04:23.059Z,1007.2
2018-08-31T06:05:03.552Z,1007.19
2018-08-31T06:05:44.024Z,1007.19
2018-08-31T06:06:24.525Z,1007.21
2018-08-31T06:07:05.039Z,1007.18
2018-08-31T06:07:45.551Z,1007.25
2018-08-31T06:08:26.093Z,1007.22
2018-08-31T06:09:06.560Z,1007.2
2018-08-31T06:09:47.204Z,1007.24
2018-08-31T06:10:27.739Z,1007.3
2018-08-31T06:11:09.639Z,1007.23
2018-08-31T06:11:49.951Z,1007.22
2018-08-31T06:12:30.385Z,1007.25
2018-08-31T06:13:10.951Z,1007.24
2018-08-31T06:13:51.454Z,1007.24
2018-08-31T06:14:31.894Z,1007.24
2018-08-31T06:15:12.393Z,1007.26
2018-08-31T06:15:52.917Z,1007.28
2018-08-31T06:16:33.977Z,1007.34
2018-08-31T06:17:14.509Z,1007.35
2018-08-31T06:17:55.044Z,1007.28
2018-08-31T06:18:35.494Z,1007.23
2018-08-31T06:19:16.050Z,1007.28
2018-08-31T06:19:56.567Z,1007.29
2018-08-31T06:20:37.030Z,1007.29
2018-08-31T06:21:17.499Z,1007.3
2018-08-31T06:23:31.865Z,1007.25
2018-08-31T06:24:12.384Z,1007.26
2018-08-31T06:24:52.887Z,1007.3
2018-08-31T06:25:33.384Z,1007.29
2018-08-31T06:26:13.902Z,1007.32
2018-08-31T06:26:54.428Z,1007.29
2018-08-31T06:27:34.935Z,1007.29
2018-08-31T06:28:15.377Z,1007.29
2018-08-31T06:28:55.884Z,1007.31
2018-08-31T06:29:36.386Z,1007.23
2018-08-31T06:30:16.924Z,1007.25
2018-08-31T06:30:57.420Z,1007.27
2018-08-31T06:31:37.944Z,1007.29
2018-08-31T06:32:18.408Z,1007.24
2018-08-31T06:32:58.893Z,1007.23
2018-08-31T06:33:39.388Z,1007.23
2018-08-31T06:34:19.901Z,1007.25
2018-08-31T06:35:00.425Z,1007.24
2018-08-31T06:35:40.944Z,1007.25
2018-08-31T06:36:21.454Z,1007.28
2018-08-31T06:37:01.993Z,1007.27
2018-08-31T06:37:42.492Z,1007.27
2018-08-31T06:38:23.004Z,1007.29
2018-08-31T06:39:03.539Z,1007.31
2018-08-31T06:39:44.065Z,1007.34
2018-08-31T06:40:24.577Z,1007.29
2018-08-31T06:41:05.080Z,1007.28
2018-08-31T06:41:46.520Z,1007.29
2018-08-31T06:42:27.027Z,1007.28
2018-08-31T06:43:07.548Z,1007.3
2018-08-31T06:43:48.074Z,1007.31
2018-08-31T06:44:28.587Z,1007.31
2018-08-31T06:45:09.110Z,1007.33
2018-08-31T06:45:49.633Z,1007.27
2018-08-31T06:46:30.170Z,1007.32
2018-08-31T06:47:10.696Z,1007.32
2018-08-31T06:47:51.335Z,1007.33
2018-08-31T06:50:09.785Z,1007.27
2018-08-31T06:50:50.293Z,1007.32
2018-08-31T06:51:30.882Z,1007.3
2018-08-31T06:52:11.355Z,1007.32
2018-08-31T06:52:52.199Z,1007.31
2018-08-31T06:53:32.719Z,1007.36
2018-08-31T06:54:13.217Z,1007.31
2018-08-31T06:54:53.733Z,1007.32
2018-08-31T06:55:34.306Z,1007.33
2018-08-31T06:56:14.827Z,1007.32
2018-08-31T06:56:55.359Z,1007.33
2018-08-31T06:57:37.522Z,1007.33
2018-08-31T06:58:18.014Z,1007.37
2018-08-31T06:58:58.549Z,1007.31
2018-08-31T06:59:39.047Z,1007.3
2018-08-31T07:00:19.918Z,1007.34
2018-08-31T07:01:00.470Z,1007.28
2018-08-31T07:01:40.968Z,1007.3
2018-08-31T07:02:21.477Z,1007.31
2018-08-31T07:03:01.956Z,1007.29
2018-08-31T07:03:42.455Z,1007.29
2018-08-31T07:04:22.974Z,1007.31
2018-08-31T07:05:03.488Z,1007.25
2018-08-31T07:05:43.985Z,1007.28
2018-08-31T07:06:24.496Z,1007.26
2018-08-31T07:07:05.006Z,1007.24
2018-08-31T07:07:45.516Z,1007.25
2018-08-31T07:08:26.020Z,1007.19
2018-08-31T07:09:06.593Z,1007.27
2018-08-31T07:09:47.113Z,1007.26
2018-08-31T07:10:27.564Z,1007.24
2018-08-31T07:11:08.287Z,1007.29
2018-08-31T07:11:48.908Z,1007.25
2018-08-31T07:12:29.587Z,1007.31
2018-08-31T07:13:09.969Z,1007.25
2018-08-31T07:13:50.423Z,1007.26
2018-08-31T07:14:30.909Z,1007.25
2018-08-31T07:15:11.361Z,1007.27
2018-08-31T07:15:51.838Z,1007.26
2018-08-31T07:16:32.335Z,1007.26
2018-08-31T07:17:12.898Z,1007.26
2018-08-31T07:17:53.374Z,1007.26
2018-08-31T07:18:33.856Z,1007.32
2018-08-31T07:19:14.329Z,1007.29
2018-08-31T07:19:54.909Z,1007.25
2018-08-31T07:20:35.310Z,1007.31
2018-08-31T07:21:15.796Z,1007.27
2018-08-31T07:21:56.355Z,1007.28
2018-08-31T07:22:36.793Z,1007.29
2018-08-31T07:23:17.366Z,1007.3
2018-08-31T07:23:57.861Z,1007.29
2018-08-31T07:24:38.354Z,1007.32
2018-08-31T07:25:18.888Z,1007.36
2018-08-31T07:25:59.475Z,1007.35
2018-08-31T07:26:39.905Z,1007.37
2018-08-31T07:27:20.371Z,1007.34
2018-08-31T07:28:00.837Z,1007.35
2018-08-31T07:28:41.328Z,1007.35
2018-08-31T07:29:21.831Z,1007.39
2018-08-31T07:30:02.316Z,1007.38
2018-08-31T07:30:42.849Z,1007.35
2018-08-31T07:31:23.338Z,1007.4
2018-08-31T07:32:03.817Z,1007.44
2018-08-31T07:32:44.417Z,1007.4
2018-08-31T07:33:24.926Z,1007.36
2018-08-31T07:34:05.562Z,1007.42
2018-08-31T07:34:46.015Z,1007.39
2018-08-31T07:35:26.509Z,1007.37
2018-08-31T07:36:07.077Z,1007.41
2018-08-31T07:36:47.517Z,1007.43
2018-08-31T07:37:27.998Z,1007.45
2018-08-31T07:38:08.474Z,1007.34
2018-08-31T07:38:48.959Z,1007.38
2018-08-31T07:39:29.783Z,1007.35
2018-08-31T07:40:10.294Z,1007.41
2018-08-31T07:40:50.805Z,1007.33
2018-08-31T07:41:31.316Z,1007.34
2018-08-31T07:42:11.892Z,1007.41
2018-08-31T07:42:52.351Z,1007.41
2018-08-31T07:43:32.881Z,1007.47
2018-08-31T07:44:13.459Z,1007.39
2018-08-31T07:44:53.962Z,1007.37
2018-08-31T07:45:34.496Z,1007.44
2018-08-31T07:46:15.022Z,1007.4
2018-08-31T07:46:55.538Z,1007.4
2018-08-31T07:47:36.085Z,1007.39
2018-08-31T07:48:16.627Z,1007.44
2018-08-31T07:48:57.180Z,1007.4
2018-08-31T07:49:37.739Z,1007.45
2018-08-31T07:50:18.208Z,1007.39
2018-08-31T07:50:58.731Z,1007.41
2018-08-31T07:51:39.249Z,1007.42
2018-08-31T07:52:19.776Z,1007.39
2018-08-31T07:53:00.303Z,1007.4
2018-08-31T07:53:40.855Z,1007.43
2018-08-31T07:54:21.355Z,1007.45
2018-08-31T07:55:01.877Z,1007.42
2018-08-31T07:55:42.397Z,1007.39
2018-08-31T07:56:22.911Z,1007.37
2018-08-31T07:57:03.424Z,1007.34
2018-08-31T07:57:43.960Z,1007.37
2018-08-31T07:58:24.495Z,1007.37
2018-08-31T07:59:05.015Z,1007.33
2018-08-31T07:59:45.552Z,1007.37
2018-08-31T08:00:26.091Z,1007.35
2018-08-31T08:01:06.607Z,1007.35
2018-08-31T08:01:47.134Z,1007.36
2018-08-31T08:02:27.663Z,1007.31
2018-08-31T08:03:08.211Z,1007.42
2018-08-31T08:03:48.771Z,1007.36
2018-08-31T08:04:29.308Z,1007.39
2018-08-31T08:05:09.816Z,1007.38
2018-08-31T08:05:50.311Z,1007.43
2018-08-31T08:06:30.821Z,1007.42
2018-08-31T08:07:11.353Z,1007.42
2018-08-31T08:07:51.896Z,1007.39
2018-08-31T08:08:32.417Z,1007.44
2018-08-31T08:09:12.929Z,1007.41
2018-08-31T08:09:53.443Z,1007.43
2018-08-31T08:10:33.964Z,1007.41
2018-08-31T08:11:14.487Z,1007.44
2018-08-31T08:11:55.350Z,1007.38
2018-08-31T08:12:35.883Z,1007.42
2018-08-31T08:13:16.388Z,1007.45
2018-08-31T08:13:56.917Z,1007.45
2018-08-31T08:14:37.523Z,1007.42
2018-08-31T08:15:18.001Z,1007.44
2018-08-31T08:15:58.544Z,1007.46
2018-08-31T08:16:39.060Z,1007.47
2018-08-31T08:17:19.571Z,1007.51
2018-08-31T08:18:00.148Z,1007.47
2018-08-31T08:18:40.680Z,1007.49
2018-08-31T08:19:21.229Z,1007.48
2018-08-31T08:20:01.740Z,1007.5
2018-08-31T08:20:42.253Z,1007.51
2018-08-31T08:21:22.749Z,1007.47